sensor_id;sensor_type;location;lat;lon;timestamp;P1;durP1;ratioP1;P2;durP2;ratioP2
69894;SDS011;57172;52.034;5.090;2022-11-20T00:00:56;20.33;;;8.85;;
69894;SDS011;57172;52.034;5.090;2022-11-20T00:03:23;20.65;;;9.18;;
69894;SDS011;57172;52.034;5.090;2022-11-20T00:05:50;19.77;;;9.50;;
69894;SDS011;57172;52.034;5.090;2022-11-20T00:08:17;21.92;;;9.43;;
69894;SDS011;57172;52.034;5.090;2022-11-20T00:10:44;20.13;;;9.88;;
69894;SDS011;57172;52.034;5.090;2022-11-20T00:13:10;19.80;;;9.52;;
69894;SDS011;57172;52.034;5.090;2022-11-20T00:15:37;19.27;;;9.07;;
69894;SDS011;57172;52.034;5.090;2022-11-20T00:18:04;23.77;;;10.15;;
69894;SDS011;57172;52.034;5.090;2022-11-20T00:20:31;23.35;;;10.10;;
69894;SDS011;57172;52.034;5.090;2022-11-20T00:22:57;22.95;;;9.63;;
69894;SDS011;57172;52.034;5.090;2022-11-20T00:25:24;22.52;;;9.93;;
69894;SDS011;57172;52.034;5.090;2022-11-20T00:27:51;24.63;;;9.80;;
69894;SDS011;57172;52.034;5.090;2022-11-20T00:30:18;23.33;;;10.30;;
69894;SDS011;57172;52.034;5.090;2022-11-20T00:32:45;19.48;;;9.38;;
69894;SDS011;57172;52.034;5.090;2022-11-20T00:35:12;20.20;;;9.50;;
69894;SDS011;57172;52.034;5.090;2022-11-20T00:37:38;22.42;;;10.13;;
69894;SDS011;57172;52.034;5.090;2022-11-20T00:40:05;22.60;;;10.15;;
69894;SDS011;57172;52.034;5.090;2022-11-20T00:42:33;22.27;;;10.50;;
69894;SDS011;57172;52.034;5.090;2022-11-20T00:45:00;20.30;;;9.85;;
69894;SDS011;57172;52.034;5.090;2022-11-20T00:47:26;21.17;;;9.95;;
69894;SDS011;57172;52.034;5.090;2022-11-20T00:49:53;22.70;;;10.27;;
69894;SDS011;57172;52.034;5.090;2022-11-20T00:52:20;21.75;;;9.98;;
69894;SDS011;57172;52.034;5.090;2022-11-20T00:54:47;21.27;;;9.75;;
69894;SDS011;57172;52.034;5.090;2022-11-20T00:57:14;22.15;;;9.50;;
69894;SDS011;57172;52.034;5.090;2022-11-20T00:59:41;20.98;;;10.05;;
69894;SDS011;57172;52.034;5.090;2022-11-20T01:02:07;22.88;;;9.88;;
69894;SDS011;57172;52.034;5.090;2022-11-20T01:04:34;22.60;;;10.35;;
69894;SDS011;57172;52.034;5.090;2022-11-20T01:07:01;22.00;;;10.85;;
69894;SDS011;57172;52.034;5.090;2022-11-20T01:09:28;24.60;;;10.88;;
69894;SDS011;57172;52.034;5.090;2022-11-20T01:11:55;21.80;;;10.57;;
69894;SDS011;57172;52.034;5.090;2022-11-20T01:14:22;25.23;;;10.85;;
69894;SDS011;57172;52.034;5.090;2022-11-20T01:16:49;24.10;;;10.90;;
69894;SDS011;57172;52.034;5.090;2022-11-20T01:19:19;25.15;;;10.82;;
69894;SDS011;57172;52.034;5.090;2022-11-20T01:21:48;25.17;;;10.73;;
69894;SDS011;57172;52.034;5.090;2022-11-20T01:24:18;23.58;;;10.70;;
69894;SDS011;57172;52.034;5.090;2022-11-20T01:26:50;25.70;;;11.55;;
69894;SDS011;57172;52.034;5.090;2022-11-20T01:29:21;23.70;;;10.77;;
69894;SDS011;57172;52.034;5.090;2022-11-20T01:31:50;22.00;;;10.70;;
69894;SDS011;57172;52.034;5.090;2022-11-20T01:34:18;24.17;;;11.35;;
69894;SDS011;57172;52.034;5.090;2022-11-20T01:36:46;24.40;;;10.70;;
69894;SDS011;57172;52.034;5.090;2022-11-20T01:39:17;23.27;;;10.45;;
69894;SDS011;57172;52.034;5.090;2022-11-20T01:41:47;21.42;;;10.23;;
69894;SDS011;57172;52.034;5.090;2022-11-20T01:50:01;25.52;;;10.73;;
69894;SDS011;57172;52.034;5.090;2022-11-20T01:55:13;22.67;;;9.82;;
69894;SDS011;57172;52.034;5.090;2022-11-20T01:57:44;22.45;;;10.55;;
69894;SDS011;57172;52.034;5.090;2022-11-20T02:00:13;21.65;;;10.20;;
69894;SDS011;57172;52.034;5.090;2022-11-20T02:02:43;21.38;;;10.02;;
69894;SDS011;57172;52.034;5.090;2022-11-20T02:05:18;22.08;;;9.88;;
69894;SDS011;57172;52.034;5.090;2022-11-20T02:08:05;23.88;;;9.85;;
69894;SDS011;57172;52.034;5.090;2022-11-20T02:10:32;23.83;;;10.82;;
69894;SDS011;57172;52.034;5.090;2022-11-20T02:13:00;24.05;;;10.57;;
69894;SDS011;57172;52.034;5.090;2022-11-20T02:15:46;26.77;;;11.52;;
69894;SDS011;57172;52.034;5.090;2022-11-20T02:18:13;25.63;;;11.07;;
69894;SDS011;57172;52.034;5.090;2022-11-20T02:20:44;23.67;;;10.82;;
69894;SDS011;57172;52.034;5.090;2022-11-20T02:26:27;21.88;;;10.48;;
69894;SDS011;57172;52.034;5.090;2022-11-20T02:28:56;23.45;;;10.25;;
69894;SDS011;57172;52.034;5.090;2022-11-20T02:31:25;22.60;;;9.77;;
69894;SDS011;57172;52.034;5.090;2022-11-20T02:33:55;23.55;;;10.98;;
69894;SDS011;57172;52.034;5.090;2022-11-20T02:36:23;25.52;;;10.18;;
69894;SDS011;57172;52.034;5.090;2022-11-20T02:38:53;23.50;;;10.27;;
69894;SDS011;57172;52.034;5.090;2022-11-20T02:41:20;24.98;;;10.88;;
69894;SDS011;57172;52.034;5.090;2022-11-20T02:43:47;23.70;;;10.88;;
69894;SDS011;57172;52.034;5.090;2022-11-20T02:46:13;21.85;;;9.20;;
69894;SDS011;57172;52.034;5.090;2022-11-20T02:48:40;22.00;;;9.30;;
69894;SDS011;57172;52.034;5.090;2022-11-20T02:51:07;24.40;;;10.32;;
69894;SDS011;57172;52.034;5.090;2022-11-20T02:53:34;24.98;;;10.48;;
69894;SDS011;57172;52.034;5.090;2022-11-20T02:56:01;22.35;;;10.38;;
69894;SDS011;57172;52.034;5.090;2022-11-20T02:58:28;24.58;;;10.95;;
69894;SDS011;57172;52.034;5.090;2022-11-20T03:00:54;24.23;;;10.43;;
69894;SDS011;57172;52.034;5.090;2022-11-20T03:03:22;22.02;;;9.73;;
69894;SDS011;57172;52.034;5.090;2022-11-20T03:05:48;23.00;;;10.27;;
69894;SDS011;57172;52.034;5.090;2022-11-20T03:08:15;23.17;;;10.05;;
69894;SDS011;57172;52.034;5.090;2022-11-20T03:10:42;20.83;;;10.38;;
69894;SDS011;57172;52.034;5.090;2022-11-20T03:13:09;23.60;;;10.32;;
69894;SDS011;57172;52.034;5.090;2022-11-20T03:15:37;20.52;;;9.70;;
69894;SDS011;57172;52.034;5.090;2022-11-20T03:18:04;21.73;;;9.90;;
69894;SDS011;57172;52.034;5.090;2022-11-20T03:20:32;21.15;;;9.93;;
69894;SDS011;57172;52.034;5.090;2022-11-20T03:23:00;22.33;;;9.88;;
69894;SDS011;57172;52.034;5.090;2022-11-20T03:25:27;20.10;;;9.43;;
69894;SDS011;57172;52.034;5.090;2022-11-20T03:27:54;22.45;;;10.15;;
69894;SDS011;57172;52.034;5.090;2022-11-20T03:30:21;22.30;;;10.00;;
69894;SDS011;57172;52.034;5.090;2022-11-20T03:32:55;23.05;;;9.48;;
69894;SDS011;57172;52.034;5.090;2022-11-20T03:35:22;21.73;;;9.90;;
69894;SDS011;57172;52.034;5.090;2022-11-20T03:37:49;23.02;;;10.13;;
69894;SDS011;57172;52.034;5.090;2022-11-20T03:40:16;22.80;;;9.98;;
69894;SDS011;57172;52.034;5.090;2022-11-20T03:42:43;22.30;;;10.07;;
69894;SDS011;57172;52.034;5.090;2022-11-20T03:45:16;21.17;;;10.05;;
69894;SDS011;57172;52.034;5.090;2022-11-20T03:47:44;21.80;;;10.02;;
69894;SDS011;57172;52.034;5.090;2022-11-20T03:50:12;22.98;;;10.63;;
69894;SDS011;57172;52.034;5.090;2022-11-20T03:52:41;24.70;;;10.63;;
69894;SDS011;57172;52.034;5.090;2022-11-20T03:55:08;22.90;;;9.95;;
69894;SDS011;57172;52.034;5.090;2022-11-20T03:57:35;23.27;;;10.15;;
69894;SDS011;57172;52.034;5.090;2022-11-20T04:00:03;19.95;;;9.68;;
69894;SDS011;57172;52.034;5.090;2022-11-20T04:02:30;22.85;;;10.55;;
69894;SDS011;57172;52.034;5.090;2022-11-20T04:04:57;22.83;;;9.93;;
69894;SDS011;57172;52.034;5.090;2022-11-20T04:07:24;22.38;;;9.40;;
69894;SDS011;57172;52.034;5.090;2022-11-20T04:09:51;21.95;;;10.20;;
69894;SDS011;57172;52.034;5.090;2022-11-20T04:12:18;22.70;;;9.75;;
69894;SDS011;57172;52.034;5.090;2022-11-20T04:14:44;22.67;;;9.98;;
69894;SDS011;57172;52.034;5.090;2022-11-20T04:17:11;24.23;;;10.60;;
69894;SDS011;57172;52.034;5.090;2022-11-20T04:19:38;20.90;;;9.52;;
69894;SDS011;57172;52.034;5.090;2022-11-20T04:22:05;24.50;;;9.93;;
69894;SDS011;57172;52.034;5.090;2022-11-20T04:24:32;20.80;;;9.63;;
69894;SDS011;57172;52.034;5.090;2022-11-20T04:26:58;21.17;;;9.38;;
69894;SDS011;57172;52.034;5.090;2022-11-20T04:29:25;24.00;;;11.20;;
69894;SDS011;57172;52.034;5.090;2022-11-20T04:31:52;20.02;;;9.35;;
69894;SDS011;57172;52.034;5.090;2022-11-20T04:34:19;23.17;;;9.80;;
69894;SDS011;57172;52.034;5.090;2022-11-20T04:36:46;21.02;;;10.30;;
69894;SDS011;57172;52.034;5.090;2022-11-20T04:39:13;23.08;;;10.05;;
69894;SDS011;57172;52.034;5.090;2022-11-20T04:41:44;21.25;;;10.30;;
69894;SDS011;57172;52.034;5.090;2022-11-20T04:44:11;24.48;;;10.90;;
69894;SDS011;57172;52.034;5.090;2022-11-20T04:46:39;22.67;;;10.13;;
69894;SDS011;57172;52.034;5.090;2022-11-20T04:49:07;23.55;;;10.38;;
69894;SDS011;57172;52.034;5.090;2022-11-20T04:51:35;24.10;;;10.70;;
69894;SDS011;57172;52.034;5.090;2022-11-20T04:54:02;22.85;;;10.77;;
69894;SDS011;57172;52.034;5.090;2022-11-20T04:56:29;24.27;;;10.35;;
69894;SDS011;57172;52.034;5.090;2022-11-20T04:58:59;24.08;;;10.45;;
69894;SDS011;57172;52.034;5.090;2022-11-20T05:01:28;19.77;;;9.35;;
69894;SDS011;57172;52.034;5.090;2022-11-20T05:03:54;22.27;;;10.15;;
69894;SDS011;57172;52.034;5.090;2022-11-20T05:06:21;22.93;;;10.13;;
69894;SDS011;57172;52.034;5.090;2022-11-20T05:08:49;23.70;;;11.00;;
69894;SDS011;57172;52.034;5.090;2022-11-20T05:11:18;25.60;;;10.70;;
69894;SDS011;57172;52.034;5.090;2022-11-20T05:13:46;20.67;;;10.02;;
69894;SDS011;57172;52.034;5.090;2022-11-20T05:16:15;22.80;;;10.23;;
69894;SDS011;57172;52.034;5.090;2022-11-20T05:18:44;26.85;;;11.90;;
69894;SDS011;57172;52.034;5.090;2022-11-20T05:21:12;23.13;;;10.32;;
69894;SDS011;57172;52.034;5.090;2022-11-20T05:23:39;23.95;;;10.80;;
69894;SDS011;57172;52.034;5.090;2022-11-20T05:26:07;24.08;;;10.68;;
69894;SDS011;57172;52.034;5.090;2022-11-20T05:28:38;22.55;;;9.88;;
69894;SDS011;57172;52.034;5.090;2022-11-20T05:31:06;24.27;;;10.85;;
69894;SDS011;57172;52.034;5.090;2022-11-20T05:33:35;21.42;;;10.13;;
69894;SDS011;57172;52.034;5.090;2022-11-20T05:36:03;24.08;;;11.13;;
69894;SDS011;57172;52.034;5.090;2022-11-20T05:38:30;22.80;;;10.88;;
69894;SDS011;57172;52.034;5.090;2022-11-20T05:43:36;20.77;;;9.80;;
69894;SDS011;57172;52.034;5.090;2022-11-20T05:46:04;24.13;;;10.80;;
69894;SDS011;57172;52.034;5.090;2022-11-20T05:48:33;24.33;;;11.25;;
69894;SDS011;57172;52.034;5.090;2022-11-20T05:51:02;23.60;;;11.00;;
69894;SDS011;57172;52.034;5.090;2022-11-20T05:53:31;24.42;;;10.70;;
69894;SDS011;57172;52.034;5.090;2022-11-20T05:56:00;24.73;;;10.40;;
69894;SDS011;57172;52.034;5.090;2022-11-20T05:58:28;23.20;;;11.13;;
69894;SDS011;57172;52.034;5.090;2022-11-20T06:01:02;28.55;;;11.20;;
69894;SDS011;57172;52.034;5.090;2022-11-20T06:03:39;21.38;;;9.82;;
69894;SDS011;57172;52.034;5.090;2022-11-20T06:06:08;25.38;;;11.20;;
69894;SDS011;57172;52.034;5.090;2022-11-20T06:08:35;22.17;;;10.20;;
69894;SDS011;57172;52.034;5.090;2022-11-20T06:11:03;23.25;;;10.57;;
69894;SDS011;57172;52.034;5.090;2022-11-20T06:13:31;22.10;;;10.15;;
69894;SDS011;57172;52.034;5.090;2022-11-20T06:15:58;25.67;;;10.88;;
69894;SDS011;57172;52.034;5.090;2022-11-20T06:18:26;28.15;;;11.88;;
69894;SDS011;57172;52.034;5.090;2022-11-20T06:21:01;23.43;;;10.93;;
69894;SDS011;57172;52.034;5.090;2022-11-20T06:23:30;22.67;;;10.80;;
69894;SDS011;57172;52.034;5.090;2022-11-20T06:26:05;22.65;;;10.43;;
69894;SDS011;57172;52.034;5.090;2022-11-20T06:28:33;24.60;;;11.45;;
69894;SDS011;57172;52.034;5.090;2022-11-20T06:31:01;27.10;;;11.88;;
69894;SDS011;57172;52.034;5.090;2022-11-20T06:33:28;23.10;;;11.02;;
69894;SDS011;57172;52.034;5.090;2022-11-20T06:35:56;25.42;;;11.38;;
69894;SDS011;57172;52.034;5.090;2022-11-20T06:38:28;27.85;;;11.52;;
69894;SDS011;57172;52.034;5.090;2022-11-20T06:40:55;29.70;;;11.77;;
69894;SDS011;57172;52.034;5.090;2022-11-20T06:43:23;26.65;;;11.93;;
69894;SDS011;57172;52.034;5.090;2022-11-20T06:45:53;24.98;;;11.27;;
69894;SDS011;57172;52.034;5.090;2022-11-20T06:48:22;26.08;;;11.48;;
69894;SDS011;57172;52.034;5.090;2022-11-20T06:50:49;24.63;;;11.77;;
69894;SDS011;57172;52.034;5.090;2022-11-20T06:53:16;24.80;;;11.25;;
69894;SDS011;57172;52.034;5.090;2022-11-20T06:55:43;29.83;;;12.98;;
69894;SDS011;57172;52.034;5.090;2022-11-20T06:58:14;25.77;;;11.80;;
69894;SDS011;57172;52.034;5.090;2022-11-20T07:00:42;25.25;;;12.00;;
69894;SDS011;57172;52.034;5.090;2022-11-20T07:03:10;28.92;;;11.88;;
69894;SDS011;57172;52.034;5.090;2022-11-20T07:05:38;28.08;;;12.50;;
69894;SDS011;57172;52.034;5.090;2022-11-20T07:08:06;29.13;;;11.82;;
69894;SDS011;57172;52.034;5.090;2022-11-20T07:10:33;24.83;;;11.35;;
69894;SDS011;57172;52.034;5.090;2022-11-20T07:13:00;26.80;;;11.85;;
69894;SDS011;57172;52.034;5.090;2022-11-20T07:15:27;27.50;;;11.70;;
69894;SDS011;57172;52.034;5.090;2022-11-20T07:17:54;26.92;;;12.20;;
69894;SDS011;57172;52.034;5.090;2022-11-20T07:20:21;27.60;;;12.02;;
69894;SDS011;57172;52.034;5.090;2022-11-20T07:22:52;26.25;;;11.23;;
69894;SDS011;57172;52.034;5.090;2022-11-20T07:25:21;24.42;;;10.73;;
69894;SDS011;57172;52.034;5.090;2022-11-20T07:27:48;25.25;;;11.68;;
69894;SDS011;57172;52.034;5.090;2022-11-20T07:30:15;24.95;;;11.48;;
69894;SDS011;57172;52.034;5.090;2022-11-20T07:32:45;24.33;;;11.57;;
69894;SDS011;57172;52.034;5.090;2022-11-20T07:35:13;26.58;;;11.93;;
69894;SDS011;57172;52.034;5.090;2022-11-20T07:37:40;24.63;;;11.65;;
69894;SDS011;57172;52.034;5.090;2022-11-20T07:40:07;26.75;;;11.68;;
69894;SDS011;57172;52.034;5.090;2022-11-20T07:42:34;27.08;;;11.90;;
69894;SDS011;57172;52.034;5.090;2022-11-20T07:45:01;28.02;;;12.02;;
69894;SDS011;57172;52.034;5.090;2022-11-20T07:47:28;25.92;;;11.65;;
69894;SDS011;57172;52.034;5.090;2022-11-20T07:49:54;26.67;;;11.60;;
69894;SDS011;57172;52.034;5.090;2022-11-20T07:52:21;25.42;;;11.80;;
69894;SDS011;57172;52.034;5.090;2022-11-20T07:54:48;25.17;;;11.20;;
69894;SDS011;57172;52.034;5.090;2022-11-20T07:57:14;26.35;;;12.52;;
69894;SDS011;57172;52.034;5.090;2022-11-20T07:59:41;25.88;;;11.90;;
69894;SDS011;57172;52.034;5.090;2022-11-20T08:02:10;26.50;;;12.30;;
69894;SDS011;57172;52.034;5.090;2022-11-20T08:04:37;24.02;;;10.88;;
69894;SDS011;57172;52.034;5.090;2022-11-20T08:07:04;24.67;;;11.32;;
69894;SDS011;57172;52.034;5.090;2022-11-20T08:09:30;26.38;;;12.35;;
69894;SDS011;57172;52.034;5.090;2022-11-20T08:11:58;24.10;;;12.20;;
69894;SDS011;57172;52.034;5.090;2022-11-20T08:14:44;26.70;;;12.63;;
69894;SDS011;57172;52.034;5.090;2022-11-20T08:17:11;25.52;;;12.25;;
69894;SDS011;57172;52.034;5.090;2022-11-20T08:19:38;26.23;;;12.20;;
69894;SDS011;57172;52.034;5.090;2022-11-20T08:22:05;25.55;;;12.25;;
69894;SDS011;57172;52.034;5.090;2022-11-20T08:24:32;24.42;;;11.10;;
69894;SDS011;57172;52.034;5.090;2022-11-20T08:26:59;26.25;;;11.82;;
69894;SDS011;57172;52.034;5.090;2022-11-20T08:29:26;26.80;;;11.68;;
69894;SDS011;57172;52.034;5.090;2022-11-20T08:31:53;24.65;;;12.25;;
69894;SDS011;57172;52.034;5.090;2022-11-20T08:34:20;27.77;;;11.75;;
69894;SDS011;57172;52.034;5.090;2022-11-20T08:36:47;27.17;;;12.38;;
69894;SDS011;57172;52.034;5.090;2022-11-20T08:39:14;25.23;;;11.98;;
69894;SDS011;57172;52.034;5.090;2022-11-20T08:41:41;26.40;;;12.52;;
69894;SDS011;57172;52.034;5.090;2022-11-20T08:44:08;27.33;;;11.63;;
69894;SDS011;57172;52.034;5.090;2022-11-20T08:46:43;26.75;;;12.18;;
69894;SDS011;57172;52.034;5.090;2022-11-20T08:49:12;24.98;;;12.32;;
69894;SDS011;57172;52.034;5.090;2022-11-20T08:51:40;22.95;;;11.93;;
69894;SDS011;57172;52.034;5.090;2022-11-20T08:54:07;24.10;;;12.32;;
69894;SDS011;57172;52.034;5.090;2022-11-20T08:56:34;27.05;;;12.88;;
69894;SDS011;57172;52.034;5.090;2022-11-20T08:59:02;25.50;;;12.52;;
69894;SDS011;57172;52.034;5.090;2022-11-20T09:01:48;26.63;;;13.35;;
69894;SDS011;57172;52.034;5.090;2022-11-20T09:04:16;29.23;;;13.70;;
69894;SDS011;57172;52.034;5.090;2022-11-20T09:06:43;27.50;;;12.98;;
69894;SDS011;57172;52.034;5.090;2022-11-20T09:09:09;25.48;;;12.73;;
69894;SDS011;57172;52.034;5.090;2022-11-20T09:11:36;29.13;;;13.98;;
69894;SDS011;57172;52.034;5.090;2022-11-20T09:14:03;28.45;;;13.70;;
69894;SDS011;57172;52.034;5.090;2022-11-20T09:16:30;24.95;;;12.38;;
69894;SDS011;57172;52.034;5.090;2022-11-20T09:18:57;25.75;;;12.98;;
69894;SDS011;57172;52.034;5.090;2022-11-20T09:21:44;25.95;;;13.48;;
69894;SDS011;57172;52.034;5.090;2022-11-20T09:24:11;27.50;;;13.70;;
69894;SDS011;57172;52.034;5.090;2022-11-20T09:26:38;25.00;;;13.40;;
69894;SDS011;57172;52.034;5.090;2022-11-20T09:29:05;26.27;;;13.23;;
69894;SDS011;57172;52.034;5.090;2022-11-20T09:31:32;25.55;;;12.90;;
69894;SDS011;57172;52.034;5.090;2022-11-20T09:33:58;26.15;;;13.25;;
69894;SDS011;57172;52.034;5.090;2022-11-20T09:36:25;27.27;;;13.93;;
69894;SDS011;57172;52.034;5.090;2022-11-20T09:38:52;26.33;;;13.65;;
69894;SDS011;57172;52.034;5.090;2022-11-20T09:44:19;26.45;;;13.85;;
69894;SDS011;57172;52.034;5.090;2022-11-20T09:47:20;28.05;;;14.02;;
69894;SDS011;57172;52.034;5.090;2022-11-20T09:55:33;26.83;;;13.90;;
69894;SDS011;57172;52.034;5.090;2022-11-20T09:58:02;25.58;;;13.93;;
69894;SDS011;57172;52.034;5.090;2022-11-20T10:00:32;27.40;;;13.98;;
69894;SDS011;57172;52.034;5.090;2022-11-20T10:03:04;27.65;;;13.63;;
69894;SDS011;57172;52.034;5.090;2022-11-20T10:05:44;29.35;;;14.70;;
69894;SDS011;57172;52.034;5.090;2022-11-20T10:08:18;29.05;;;14.15;;
69894;SDS011;57172;52.034;5.090;2022-11-20T10:16:26;28.58;;;13.93;;
69894;SDS011;57172;52.034;5.090;2022-11-20T10:19:24;27.10;;;14.07;;
69894;SDS011;57172;52.034;5.090;2022-11-20T10:27:14;28.77;;;14.68;;
69894;SDS011;57172;52.034;5.090;2022-11-20T10:30:01;25.67;;;14.10;;
69894;SDS011;57172;52.034;5.090;2022-11-20T10:32:41;30.20;;;14.85;;
69894;SDS011;57172;52.034;5.090;2022-11-20T10:37:41;26.27;;;14.23;;
69894;SDS011;57172;52.034;5.090;2022-11-20T10:43:46;29.98;;;15.55;;
69894;SDS011;57172;52.034;5.090;2022-11-20T10:46:17;29.60;;;15.43;;
69894;SDS011;57172;52.034;5.090;2022-11-20T10:48:48;32.95;;;15.90;;
69894;SDS011;57172;52.034;5.090;2022-11-20T10:54:47;29.25;;;14.60;;
69894;SDS011;57172;52.034;5.090;2022-11-20T10:56:55;35.85;;;16.20;;
69894;SDS011;57172;52.034;5.090;2022-11-20T11:02:22;29.17;;;16.00;;
69894;SDS011;57172;52.034;5.090;2022-11-20T11:04:53;29.60;;;15.20;;
69894;SDS011;57172;52.034;5.090;2022-11-20T11:07:25;34.00;;;16.52;;
69894;SDS011;57172;52.034;5.090;2022-11-20T11:09:57;31.80;;;15.30;;
69894;SDS011;57172;52.034;5.090;2022-11-20T11:12:24;36.35;;;16.70;;
69894;SDS011;57172;52.034;5.090;2022-11-20T11:14:53;33.58;;;16.73;;
69894;SDS011;57172;52.034;5.090;2022-11-20T11:17:29;33.78;;;17.60;;
69894;SDS011;57172;52.034;5.090;2022-11-20T11:19:58;33.83;;;16.67;;
69894;SDS011;57172;52.034;5.090;2022-11-20T11:22:47;33.42;;;16.48;;
69894;SDS011;57172;52.034;5.090;2022-11-20T11:25:23;34.60;;;15.82;;
69894;SDS011;57172;52.034;5.090;2022-11-20T11:28:02;35.35;;;16.58;;
69894;SDS011;57172;52.034;5.090;2022-11-20T11:30:40;33.55;;;15.88;;
69894;SDS011;57172;52.034;5.090;2022-11-20T11:33:10;39.28;;;17.52;;
69894;SDS011;57172;52.034;5.090;2022-11-20T11:35:45;35.85;;;17.05;;
69894;SDS011;57172;52.034;5.090;2022-11-20T11:38:19;37.60;;;17.30;;
69894;SDS011;57172;52.034;5.090;2022-11-20T11:40:49;39.78;;;17.67;;
69894;SDS011;57172;52.034;5.090;2022-11-20T11:43:20;39.25;;;17.75;;
69894;SDS011;57172;52.034;5.090;2022-11-20T11:46:30;41.30;;;18.33;;
69894;SDS011;57172;52.034;5.090;2022-11-20T11:52:18;40.53;;;18.60;;
69894;SDS011;57172;52.034;5.090;2022-11-20T11:55:17;41.20;;;17.95;;
69894;SDS011;57172;52.034;5.090;2022-11-20T12:00:10;36.13;;;16.52;;
69894;SDS011;57172;52.034;5.090;2022-11-20T12:15:44;116.05;;;43.80;;
69894;SDS011;57172;52.034;5.090;2022-11-20T12:18:20;322.25;;;105.68;;
69894;SDS011;57172;52.034;5.090;2022-11-20T12:21:00;46.30;;;20.40;;
69894;SDS011;57172;52.034;5.090;2022-11-20T12:26:49;41.92;;;17.98;;
69894;SDS011;57172;52.034;5.090;2022-11-20T12:29:41;43.72;;;18.90;;
69894;SDS011;57172;52.034;5.090;2022-11-20T12:35:30;45.72;;;20.13;;
69894;SDS011;57172;52.034;5.090;2022-11-20T12:56:42;43.25;;;17.80;;
69894;SDS011;57172;52.034;5.090;2022-11-20T12:59:41;42.58;;;18.48;;
69894;SDS011;57172;52.034;5.090;2022-11-20T13:05:17;45.20;;;17.80;;
69894;SDS011;57172;52.034;5.090;2022-11-20T13:07:51;47.45;;;18.90;;
69894;SDS011;57172;52.034;5.090;2022-11-20T13:10:21;45.75;;;20.25;;
69894;SDS011;57172;52.034;5.090;2022-11-20T13:13:16;45.03;;;18.83;;
69894;SDS011;57172;52.034;5.090;2022-11-20T13:18:26;47.72;;;19.58;;
69894;SDS011;57172;52.034;5.090;2022-11-20T13:21:14;49.58;;;20.60;;
69894;SDS011;57172;52.034;5.090;2022-11-20T13:23:45;47.22;;;19.20;;
69894;SDS011;57172;52.034;5.090;2022-11-20T13:26:19;55.72;;;24.05;;
69894;SDS011;57172;52.034;5.090;2022-11-20T13:29:02;44.20;;;18.77;;
69894;SDS011;57172;52.034;5.090;2022-11-20T13:31:39;46.92;;;19.77;;
69894;SDS011;57172;52.034;5.090;2022-11-20T13:34:11;48.45;;;20.48;;
69894;SDS011;57172;52.034;5.090;2022-11-20T13:36:50;46.90;;;20.77;;
69894;SDS011;57172;52.034;5.090;2022-11-20T13:39:24;43.08;;;19.13;;
69894;SDS011;57172;52.034;5.090;2022-11-20T13:41:59;47.58;;;20.55;;
69894;SDS011;57172;52.034;5.090;2022-11-20T13:44:48;50.88;;;20.83;;
69894;SDS011;57172;52.034;5.090;2022-11-20T13:49:48;58.83;;;25.10;;
69894;SDS011;57172;52.034;5.090;2022-11-20T14:00:17;51.00;;;23.10;;
69894;SDS011;57172;52.034;5.090;2022-11-20T14:02:52;62.80;;;25.55;;
69894;SDS011;57172;52.034;5.090;2022-11-20T14:05:51;60.38;;;23.70;;
69894;SDS011;57172;52.034;5.090;2022-11-20T14:08:26;58.58;;;25.20;;
69894;SDS011;57172;52.034;5.090;2022-11-20T14:11:16;56.17;;;23.63;;
69894;SDS011;57172;52.034;5.090;2022-11-20T14:16:43;42.33;;;17.83;;
69894;SDS011;57172;52.034;5.090;2022-11-20T14:19:20;52.10;;;20.98;;
69894;SDS011;57172;52.034;5.090;2022-11-20T14:21:53;49.75;;;20.33;;
69894;SDS011;57172;52.034;5.090;2022-11-20T14:24:40;57.47;;;22.42;;
69894;SDS011;57172;52.034;5.090;2022-11-20T14:27:17;48.10;;;20.10;;
69894;SDS011;57172;52.034;5.090;2022-11-20T14:29:47;58.15;;;21.80;;
69894;SDS011;57172;52.034;5.090;2022-11-20T14:32:17;49.85;;;19.58;;
69894;SDS011;57172;52.034;5.090;2022-11-20T14:34:46;54.92;;;21.00;;
69894;SDS011;57172;52.034;5.090;2022-11-20T14:37:24;57.03;;;20.92;;
69894;SDS011;57172;52.034;5.090;2022-11-20T14:39:53;58.00;;;22.88;;
69894;SDS011;57172;52.034;5.090;2022-11-20T14:42:22;58.67;;;21.33;;
69894;SDS011;57172;52.034;5.090;2022-11-20T14:44:52;51.70;;;20.10;;
69894;SDS011;57172;52.034;5.090;2022-11-20T14:47:23;59.05;;;23.60;;
69894;SDS011;57172;52.034;5.090;2022-11-20T14:49:53;59.13;;;23.10;;
69894;SDS011;57172;52.034;5.090;2022-11-20T14:52:25;57.53;;;22.23;;
69894;SDS011;57172;52.034;5.090;2022-11-20T14:54:54;68.90;;;24.65;;
69894;SDS011;57172;52.034;5.090;2022-11-20T14:57:26;63.55;;;24.80;;
69894;SDS011;57172;52.034;5.090;2022-11-20T15:00:03;71.10;;;25.20;;
69894;SDS011;57172;52.034;5.090;2022-11-20T15:02:33;68.40;;;24.50;;
69894;SDS011;57172;52.034;5.090;2022-11-20T15:05:01;64.45;;;23.98;;
69894;SDS011;57172;52.034;5.090;2022-11-20T15:07:31;84.25;;;30.38;;
69894;SDS011;57172;52.034;5.090;2022-11-20T15:12:27;75.32;;;28.38;;
69894;SDS011;57172;52.034;5.090;2022-11-20T15:14:56;70.22;;;23.70;;
69894;SDS011;57172;52.034;5.090;2022-11-20T15:17:23;57.90;;;21.90;;
69894;SDS011;57172;52.034;5.090;2022-11-20T15:19:50;71.72;;;26.25;;
69894;SDS011;57172;52.034;5.090;2022-11-20T15:22:18;85.65;;;28.38;;
69894;SDS011;57172;52.034;5.090;2022-11-20T15:24:45;60.30;;;23.52;;
69894;SDS011;57172;52.034;5.090;2022-11-20T15:27:12;110.47;;;34.95;;
69894;SDS011;57172;52.034;5.090;2022-11-20T15:29:39;74.35;;;25.85;;
69894;SDS011;57172;52.034;5.090;2022-11-20T15:32:07;58.75;;;21.98;;
69894;SDS011;57172;52.034;5.090;2022-11-20T15:34:39;58.63;;;21.77;;
69894;SDS011;57172;52.034;5.090;2022-11-20T15:37:05;87.95;;;27.83;;
69894;SDS011;57172;52.034;5.090;2022-11-20T15:39:32;73.43;;;23.85;;
69894;SDS011;57172;52.034;5.090;2022-11-20T15:41:59;77.05;;;24.85;;
69894;SDS011;57172;52.034;5.090;2022-11-20T15:44:26;46.85;;;16.67;;
69894;SDS011;57172;52.034;5.090;2022-11-20T15:46:52;42.47;;;16.83;;
69894;SDS011;57172;52.034;5.090;2022-11-20T15:49:19;61.05;;;22.15;;
69894;SDS011;57172;52.034;5.090;2022-11-20T15:51:49;65.53;;;24.02;;
69894;SDS011;57172;52.034;5.090;2022-11-20T15:54:17;56.50;;;21.17;;
69894;SDS011;57172;52.034;5.090;2022-11-20T15:56:49;63.95;;;21.85;;
69894;SDS011;57172;52.034;5.090;2022-11-20T15:59:19;51.15;;;19.60;;
69894;SDS011;57172;52.034;5.090;2022-11-20T16:01:46;53.05;;;20.73;;
69894;SDS011;57172;52.034;5.090;2022-11-20T16:04:14;53.95;;;21.10;;
69894;SDS011;57172;52.034;5.090;2022-11-20T16:06:42;62.15;;;21.58;;
69894;SDS011;57172;52.034;5.090;2022-11-20T16:09:09;59.55;;;21.88;;
69894;SDS011;57172;52.034;5.090;2022-11-20T16:11:36;55.47;;;20.95;;
69894;SDS011;57172;52.034;5.090;2022-11-20T16:14:04;48.90;;;18.60;;
69894;SDS011;57172;52.034;5.090;2022-11-20T16:16:50;50.65;;;19.08;;
69894;SDS011;57172;52.034;5.090;2022-11-20T16:19:17;52.28;;;20.10;;
69894;SDS011;57172;52.034;5.090;2022-11-20T16:21:44;45.97;;;19.55;;
69894;SDS011;57172;52.034;5.090;2022-11-20T16:24:12;58.70;;;20.08;;
69894;SDS011;57172;52.034;5.090;2022-11-20T16:26:40;55.22;;;20.17;;
69894;SDS011;57172;52.034;5.090;2022-11-20T16:29:07;55.20;;;20.60;;
69894;SDS011;57172;52.034;5.090;2022-11-20T16:31:34;51.55;;;19.85;;